sensor_id;sensor_type;location;lat;lon;timestamp;P1;durP1;ratioP1;P2;durP2;ratioP2
2123;SDS011;1068;52.460;13.528;2022-11-02T00:01:41;8.10;;;6.30;;
2123;SDS011;1068;52.460;13.528;2022-11-02T00:04:09;6.80;;;6.10;;
2123;SDS011;1068;52.460;13.528;2022-11-02T00:06:37;8.23;;;7.43;;
2123;SDS011;1068;52.460;13.528;2022-11-02T00:09:05;6.90;;;6.00;;
2123;SDS011;1068;52.460;13.528;2022-11-02T00:11:32;7.70;;;6.33;;
2123;SDS011;1068;52.460;13.528;2022-11-02T00:14:02;6.80;;;6.10;;
2123;SDS011;1068;52.460;13.528;2022-11-02T00:16:29;6.30;;;5.47;;
2123;SDS011;1068;52.460;13.528;2022-11-02T00:18:57;6.67;;;6.00;;
2123;SDS011;1068;52.460;13.528;2022-11-02T00:21:25;6.83;;;6.30;;
2123;SDS011;1068;52.460;13.528;2022-11-02T00:23:53;8.13;;;6.20;;
2123;SDS011;1068;52.460;13.528;2022-11-02T00:26:20;6.47;;;5.87;;
2123;SDS011;1068;52.460;13.528;2022-11-02T00:28:47;6.13;;;5.63;;
2123;SDS011;1068;52.460;13.528;2022-11-02T00:31:16;6.15;;;5.63;;
2123;SDS011;1068;52.460;13.528;2022-11-02T00:33:43;6.37;;;5.70;;
2123;SDS011;1068;52.460;13.528;2022-11-02T00:36:10;6.80;;;6.10;;
2123;SDS011;1068;52.460;13.528;2022-11-02T00:38:39;8.13;;;6.30;;
2123;SDS011;1068;52.460;13.528;2022-11-02T00:41:06;5.77;;;5.07;;
2123;SDS011;1068;52.460;13.528;2022-11-02T00:43:33;5.50;;;5.00;;
2123;SDS011;1068;52.460;13.528;2022-11-02T00:46:00;5.47;;;4.97;;
2123;SDS011;1068;52.460;13.528;2022-11-02T00:48:29;7.07;;;5.47;;
2123;SDS011;1068;52.460;13.528;2022-11-02T00:50:56;5.97;;;5.33;;
2123;SDS011;1068;52.460;13.528;2022-11-02T00:53:23;6.67;;;5.30;;
2123;SDS011;1068;52.460;13.528;2022-11-02T00:55:50;6.07;;;5.47;;
2123;SDS011;1068;52.460;13.528;2022-11-02T00:58:17;5.80;;;5.30;;
2123;SDS011;1068;52.460;13.528;2022-11-02T01:00:44;5.80;;;5.30;;
2123;SDS011;1068;52.460;13.528;2022-11-02T01:03:13;7.50;;;5.17;;
2123;SDS011;1068;52.460;13.528;2022-11-02T01:05:42;5.87;;;5.27;;
2123;SDS011;1068;52.460;13.528;2022-11-02T01:08:09;6.13;;;4.57;;
2123;SDS011;1068;52.460;13.528;2022-11-02T01:10:36;5.63;;;5.13;;
2123;SDS011;1068;52.460;13.528;2022-11-02T01:13:03;4.90;;;4.50;;
2123;SDS011;1068;52.460;13.528;2022-11-02T01:15:30;6.07;;;5.43;;
2123;SDS011;1068;52.460;13.528;2022-11-02T01:17:57;5.30;;;4.90;;
2123;SDS011;1068;52.460;13.528;2022-11-02T01:20:24;5.43;;;5.07;;
2123;SDS011;1068;52.460;13.528;2022-11-02T01:22:52;5.00;;;4.00;;
2123;SDS011;1068;52.460;13.528;2022-11-02T01:25:19;6.73;;;3.90;;
2123;SDS011;1068;52.460;13.528;2022-11-02T01:27:46;4.27;;;3.97;;
2123;SDS011;1068;52.460;13.528;2022-11-02T01:30:13;4.83;;;4.43;;
2123;SDS011;1068;52.460;13.528;2022-11-02T01:32:40;7.57;;;5.10;;
2123;SDS011;1068;52.460;13.528;2022-11-02T01:35:08;5.77;;;4.20;;
2123;SDS011;1068;52.460;13.528;2022-11-02T01:37:35;4.87;;;4.47;;
2123;SDS011;1068;52.460;13.528;2022-11-02T01:40:04;5.47;;;4.10;;
2123;SDS011;1068;52.460;13.528;2022-11-02T01:42:31;4.68;;;4.38;;
2123;SDS011;1068;52.460;13.528;2022-11-02T01:44:58;4.10;;;3.67;;
2123;SDS011;1068;52.460;13.528;2022-11-02T01:47:25;4.80;;;4.40;;
2123;SDS011;1068;52.460;13.528;2022-11-02T01:49:54;4.40;;;4.00;;
2123;SDS011;1068;52.460;13.528;2022-11-02T01:52:24;4.63;;;3.50;;
2123;SDS011;1068;52.460;13.528;2022-11-02T01:54:53;4.87;;;4.37;;
2123;SDS011;1068;52.460;13.528;2022-11-02T01:57:22;5.83;;;3.90;;
2123;SDS011;1068;52.460;13.528;2022-11-02T01:59:52;4.20;;;3.87;;
2123;SDS011;1068;52.460;13.528;2022-11-02T02:02:21;4.17;;;3.50;;
2123;SDS011;1068;52.460;13.528;2022-11-02T02:04:50;7.00;;;3.33;;
2123;SDS011;1068;52.460;13.528;2022-11-02T02:07:18;5.30;;;3.70;;
2123;SDS011;1068;52.460;13.528;2022-11-02T02:09:48;11.53;;;4.17;;
2123;SDS011;1068;52.460;13.528;2022-11-02T02:12:15;3.95;;;3.42;;
2123;SDS011;1068;52.460;13.528;2022-11-02T02:14:43;3.53;;;3.23;;
2123;SDS011;1068;52.460;13.528;2022-11-02T02:17:15;4.60;;;3.47;;
2123;SDS011;1068;52.460;13.528;2022-11-02T02:19:47;6.20;;;3.20;;
2123;SDS011;1068;52.460;13.528;2022-11-02T02:22:31;4.57;;;3.27;;
2123;SDS011;1068;52.460;13.528;2022-11-02T02:25:05;3.47;;;3.20;;
2123;SDS011;1068;52.460;13.528;2022-11-02T02:27:50;5.87;;;3.50;;
2123;SDS011;1068;52.460;13.528;2022-11-02T02:30:21;2.92;;;2.70;;
2123;SDS011;1068;52.460;13.528;2022-11-02T02:32:50;3.73;;;3.10;;
2123;SDS011;1068;52.460;13.528;2022-11-02T02:35:21;3.47;;;3.27;;
2123;SDS011;1068;52.460;13.528;2022-11-02T02:37:51;6.57;;;3.53;;
2123;SDS011;1068;52.460;13.528;2022-11-02T02:40:19;5.80;;;2.80;;
2123;SDS011;1068;52.460;13.528;2022-11-02T02:42:52;3.00;;;2.70;;
2123;SDS011;1068;52.460;13.528;2022-11-02T02:45:21;3.97;;;3.50;;
2123;SDS011;1068;52.460;13.528;2022-11-02T02:47:51;4.40;;;3.57;;
2123;SDS011;1068;52.460;13.528;2022-11-02T02:50:22;2.83;;;2.63;;
2123;SDS011;1068;52.460;13.528;2022-11-02T02:52:51;5.30;;;2.73;;
2123;SDS011;1068;52.460;13.528;2022-11-02T02:55:20;3.53;;;2.80;;
2123;SDS011;1068;52.460;13.528;2022-11-02T02:57:49;3.83;;;3.00;;
2123;SDS011;1068;52.460;13.528;2022-11-02T03:00:18;2.70;;;2.50;;
2123;SDS011;1068;52.460;13.528;2022-11-02T03:02:46;3.17;;;2.80;;
2123;SDS011;1068;52.460;13.528;2022-11-02T03:05:25;4.13;;;2.40;;
2123;SDS011;1068;52.460;13.528;2022-11-02T03:07:52;4.43;;;3.03;;
2123;SDS011;1068;52.460;13.528;2022-11-02T03:10:21;2.83;;;2.50;;
2123;SDS011;1068;52.460;13.528;2022-11-02T03:13:00;3.70;;;2.63;;
2123;SDS011;1068;52.460;13.528;2022-11-02T03:15:33;3.20;;;2.80;;
2123;SDS011;1068;52.460;13.528;2022-11-02T03:18:02;5.67;;;2.70;;
2123;SDS011;1068;52.460;13.528;2022-11-02T03:20:37;3.97;;;3.20;;
2123;SDS011;1068;52.460;13.528;2022-11-02T03:23:10;3.73;;;2.30;;
2123;SDS011;1068;52.460;13.528;2022-11-02T03:25:42;5.80;;;2.80;;
2123;SDS011;1068;52.460;13.528;2022-11-02T03:28:15;3.30;;;2.60;;
2123;SDS011;1068;52.460;13.528;2022-11-02T03:30:46;2.70;;;2.20;;
2123;SDS011;1068;52.460;13.528;2022-11-02T03:33:15;5.60;;;2.70;;
2123;SDS011;1068;52.460;13.528;2022-11-02T03:35:46;3.27;;;2.33;;
2123;SDS011;1068;52.460;13.528;2022-11-02T03:38:18;4.43;;;2.10;;
2123;SDS011;1068;52.460;13.528;2022-11-02T03:40:45;7.93;;;2.67;;
2123;SDS011;1068;52.460;13.528;2022-11-02T03:43:13;2.40;;;2.20;;
2123;SDS011;1068;52.460;13.528;2022-11-02T03:45:41;2.80;;;2.60;;
2123;SDS011;1068;52.460;13.528;2022-11-02T03:48:10;6.03;;;2.83;;
2123;SDS011;1068;52.460;13.528;2022-11-02T03:50:40;3.80;;;2.28;;
2123;SDS011;1068;52.460;13.528;2022-11-02T03:53:08;4.17;;;2.70;;
2123;SDS011;1068;52.460;13.528;2022-11-02T03:55:36;3.73;;;2.20;;
2123;SDS011;1068;52.460;13.528;2022-11-02T03:58:05;7.60;;;2.40;;
2123;SDS011;1068;52.460;13.528;2022-11-02T04:00:35;5.60;;;3.97;;
2123;SDS011;1068;52.460;13.528;2022-11-02T04:03:03;7.73;;;3.00;;
2123;SDS011;1068;52.460;13.528;2022-11-02T04:05:34;5.90;;;2.40;;
2123;SDS011;1068;52.460;13.528;2022-11-02T04:08:01;2.60;;;2.40;;
2123;SDS011;1068;52.460;13.528;2022-11-02T04:10:48;5.30;;;2.47;;
2123;SDS011;1068;52.460;13.528;2022-11-02T04:13:33;5.20;;;2.40;;
2123;SDS011;1068;52.460;13.528;2022-11-02T04:16:18;3.93;;;2.47;;
2123;SDS011;1068;52.460;13.528;2022-11-02T04:18:45;2.80;;;2.10;;
2123;SDS011;1068;52.460;13.528;2022-11-02T04:21:31;4.83;;;2.10;;
2123;SDS011;1068;52.460;13.528;2022-11-02T04:23:58;3.22;;;1.63;;
2123;SDS011;1068;52.460;13.528;2022-11-02T04:26:43;4.83;;;2.40;;
2123;SDS011;1068;52.460;13.528;2022-11-02T04:29:10;3.53;;;1.67;;
2123;SDS011;1068;52.460;13.528;2022-11-02T04:31:37;4.87;;;1.87;;
2123;SDS011;1068;52.460;13.528;2022-11-02T04:34:04;4.97;;;2.50;;
2123;SDS011;1068;52.460;13.528;2022-11-02T04:36:32;4.30;;;1.90;;
2123;SDS011;1068;52.460;13.528;2022-11-02T04:38:59;4.80;;;2.03;;
2123;SDS011;1068;52.460;13.528;2022-11-02T04:41:25;3.90;;;2.77;;
2123;SDS011;1068;52.460;13.528;2022-11-02T04:44:08;6.73;;;2.30;;
2123;SDS011;1068;52.460;13.528;2022-11-02T04:46:36;10.27;;;3.27;;
2123;SDS011;1068;52.460;13.528;2022-11-02T04:49:04;4.03;;;2.80;;
2123;SDS011;1068;52.460;13.528;2022-11-02T04:51:32;7.17;;;2.87;;
2123;SDS011;1068;52.460;13.528;2022-11-02T04:54:00;4.87;;;2.70;;
2123;SDS011;1068;52.460;13.528;2022-11-02T04:56:28;5.20;;;2.60;;
2123;SDS011;1068;52.460;13.528;2022-11-02T04:58:56;7.47;;;2.50;;
2123;SDS011;1068;52.460;13.528;2022-11-02T05:01:23;5.83;;;3.20;;
2123;SDS011;1068;52.460;13.528;2022-11-02T05:03:51;4.77;;;2.37;;
2123;SDS011;1068;52.460;13.528;2022-11-02T05:06:19;6.47;;;2.60;;
2123;SDS011;1068;52.460;13.528;2022-11-02T05:08:47;9.93;;;3.03;;
2123;SDS011;1068;52.460;13.528;2022-11-02T05:11:14;3.17;;;2.00;;
2123;SDS011;1068;52.460;13.528;2022-11-02T05:13:42;5.13;;;2.27;;
2123;SDS011;1068;52.460;13.528;2022-11-02T05:16:10;3.03;;;1.90;;
2123;SDS011;1068;52.460;13.528;2022-11-02T05:18:37;3.80;;;2.37;;
2123;SDS011;1068;52.460;13.528;2022-11-02T05:21:04;2.70;;;2.10;;
2123;SDS011;1068;52.460;13.528;2022-11-02T05:23:33;5.13;;;2.42;;
2123;SDS011;1068;52.460;13.528;2022-11-02T05:26:02;3.60;;;2.30;;
2123;SDS011;1068;52.460;13.528;2022-11-02T05:28:30;6.00;;;2.27;;
2123;SDS011;1068;52.460;13.528;2022-11-02T05:30:57;2.90;;;2.23;;
2123;SDS011;1068;52.460;13.528;2022-11-02T05:33:26;3.40;;;2.27;;
2123;SDS011;1068;52.460;13.528;2022-11-02T05:35:53;3.00;;;1.90;;
2123;SDS011;1068;52.460;13.528;2022-11-02T05:38:20;4.17;;;2.83;;
2123;SDS011;1068;52.460;13.528;2022-11-02T05:40:50;4.10;;;1.90;;
2123;SDS011;1068;52.460;13.528;2022-11-02T05:43:18;2.67;;;1.87;;
2123;SDS011;1068;52.460;13.528;2022-11-02T05:45:50;4.50;;;2.97;;
2123;SDS011;1068;52.460;13.528;2022-11-02T05:48:17;7.00;;;2.13;;
2123;SDS011;1068;52.460;13.528;2022-11-02T05:50:46;2.38;;;1.77;;
2123;SDS011;1068;52.460;13.528;2022-11-02T05:53:13;5.43;;;2.10;;
2123;SDS011;1068;52.460;13.528;2022-11-02T05:55:40;3.93;;;1.70;;
2123;SDS011;1068;52.460;13.528;2022-11-02T05:58:07;8.20;;;2.10;;
2123;SDS011;1068;52.460;13.528;2022-11-02T06:00:35;4.60;;;1.80;;
2123;SDS011;1068;52.460;13.528;2022-11-02T06:03:02;4.23;;;1.90;;
2123;SDS011;1068;52.460;13.528;2022-11-02T06:05:30;4.50;;;2.13;;
2123;SDS011;1068;52.460;13.528;2022-11-02T06:07:57;10.60;;;2.63;;
2123;SDS011;1068;52.460;13.528;2022-11-02T06:10:25;3.37;;;1.63;;
2123;SDS011;1068;52.460;13.528;2022-11-02T06:12:55;2.77;;;1.80;;
2123;SDS011;1068;52.460;13.528;2022-11-02T06:15:22;7.10;;;2.00;;
2123;SDS011;1068;52.460;13.528;2022-11-02T06:17:50;5.80;;;2.45;;
2123;SDS011;1068;52.460;13.528;2022-11-02T06:20:18;3.93;;;1.77;;
2123;SDS011;1068;52.460;13.528;2022-11-02T06:22:45;7.03;;;2.40;;
2123;SDS011;1068;52.460;13.528;2022-11-02T06:25:12;3.93;;;2.00;;
2123;SDS011;1068;52.460;13.528;2022-11-02T06:27:40;3.93;;;1.97;;
2123;SDS011;1068;52.460;13.528;2022-11-02T06:30:08;4.03;;;1.73;;
2123;SDS011;1068;52.460;13.528;2022-11-02T06:32:35;2.47;;;2.20;;
2123;SDS011;1068;52.460;13.528;2022-11-02T06:35:03;13.73;;;2.65;;
2123;SDS011;1068;52.460;13.528;2022-11-02T06:37:32;6.30;;;1.80;;
2123;SDS011;1068;52.460;13.528;2022-11-02T06:39:59;3.83;;;1.60;;
2123;SDS011;1068;52.460;13.528;2022-11-02T06:42:26;4.23;;;2.17;;
2123;SDS011;1068;52.460;13.528;2022-11-02T06:44:54;4.33;;;1.93;;
2123;SDS011;1068;52.460;13.528;2022-11-02T06:47:28;6.63;;;1.58;;
2123;SDS011;1068;52.460;13.528;2022-11-02T06:49:55;5.43;;;2.10;;
2123;SDS011;1068;52.460;13.528;2022-11-02T06:52:23;3.60;;;1.97;;
2123;SDS011;1068;52.460;13.528;2022-11-02T06:54:50;6.70;;;2.70;;
2123;SDS011;1068;52.460;13.528;2022-11-02T06:57:17;5.47;;;1.97;;
2123;SDS011;1068;52.460;13.528;2022-11-02T06:59:44;6.13;;;2.07;;
2123;SDS011;1068;52.460;13.528;2022-11-02T07:02:12;3.73;;;1.73;;
2123;SDS011;1068;52.460;13.528;2022-11-02T07:04:39;7.30;;;2.00;;
2123;SDS011;1068;52.460;13.528;2022-11-02T07:07:05;6.20;;;2.10;;
2123;SDS011;1068;52.460;13.528;2022-11-02T07:09:34;4.82;;;2.65;;
2123;SDS011;1068;52.460;13.528;2022-11-02T07:12:02;4.40;;;2.33;;
2123;SDS011;1068;52.460;13.528;2022-11-02T07:14:29;4.30;;;1.88;;
2123;SDS011;1068;52.460;13.528;2022-11-02T07:16:56;5.43;;;2.90;;
2123;SDS011;1068;52.460;13.528;2022-11-02T07:19:23;5.63;;;2.37;;
2123;SDS011;1068;52.460;13.528;2022-11-02T07:21:50;5.70;;;2.20;;
2123;SDS011;1068;52.460;13.528;2022-11-02T07:24:17;4.70;;;1.97;;
2123;SDS011;1068;52.460;13.528;2022-11-02T07:26:47;2.53;;;1.73;;
2123;SDS011;1068;52.460;13.528;2022-11-02T07:29:15;8.40;;;1.77;;
2123;SDS011;1068;52.460;13.528;2022-11-02T07:31:42;5.17;;;2.57;;
2123;SDS011;1068;52.460;13.528;2022-11-02T07:34:09;5.73;;;3.80;;
2123;SDS011;1068;52.460;13.528;2022-11-02T07:36:36;4.20;;;2.00;;
2123;SDS011;1068;52.460;13.528;2022-11-02T07:39:03;3.60;;;2.13;;
2123;SDS011;1068;52.460;13.528;2022-11-02T07:41:30;6.53;;;1.95;;
2123;SDS011;1068;52.460;13.528;2022-11-02T07:43:59;4.60;;;2.10;;
2123;SDS011;1068;52.460;13.528;2022-11-02T07:46:26;8.40;;;2.42;;
2123;SDS011;1068;52.460;13.528;2022-11-02T07:48:53;10.20;;;2.70;;
2123;SDS011;1068;52.460;13.528;2022-11-02T07:51:20;3.40;;;1.80;;
2123;SDS011;1068;52.460;13.528;2022-11-02T07:53:47;5.67;;;1.70;;
2123;SDS011;1068;52.460;13.528;2022-11-02T07:56:14;5.73;;;1.60;;
2123;SDS011;1068;52.460;13.528;2022-11-02T07:58:41;4.60;;;2.00;;
2123;SDS011;1068;52.460;13.528;2022-11-02T08:01:09;6.50;;;1.57;;
2123;SDS011;1068;52.460;13.528;2022-11-02T08:03:36;8.20;;;2.23;;
2123;SDS011;1068;52.460;13.528;2022-11-02T08:06:03;9.60;;;2.40;;
2123;SDS011;1068;52.460;13.528;2022-11-02T08:08:31;5.97;;;1.83;;
2123;SDS011;1068;52.460;13.528;2022-11-02T08:11:01;4.10;;;2.20;;
2123;SDS011;1068;52.460;13.528;2022-11-02T08:13:28;4.33;;;2.50;;
2123;SDS011;1068;52.460;13.528;2022-11-02T08:15:55;5.13;;;2.47;;
2123;SDS011;1068;52.460;13.528;2022-11-02T08:18:24;6.73;;;2.43;;
2123;SDS011;1068;52.460;13.528;2022-11-02T08:20:53;3.20;;;1.70;;
2123;SDS011;1068;52.460;13.528;2022-11-02T08:23:20;4.63;;;1.83;;
2123;SDS011;1068;52.460;13.528;2022-11-02T08:25:48;4.73;;;2.00;;
2123;SDS011;1068;52.460;13.528;2022-11-02T08:28:16;6.00;;;2.20;;
2123;SDS011;1068;52.460;13.528;2022-11-02T08:30:44;2.67;;;1.87;;
2123;SDS011;1068;52.460;13.528;2022-11-02T08:33:12;5.93;;;2.70;;
2123;SDS011;1068;52.460;13.528;2022-11-02T08:35:41;2.63;;;1.60;;
2123;SDS011;1068;52.460;13.528;2022-11-02T08:38:08;4.60;;;1.60;;
2123;SDS011;1068;52.460;13.528;2022-11-02T08:40:36;4.03;;;1.57;;
2123;SDS011;1068;52.460;13.528;2022-11-02T08:43:03;8.43;;;1.92;;
2123;SDS011;1068;52.460;13.528;2022-11-02T08:45:31;4.83;;;1.30;;
2123;SDS011;1068;52.460;13.528;2022-11-02T08:47:58;5.30;;;1.87;;
2123;SDS011;1068;52.460;13.528;2022-11-02T08:50:26;5.33;;;2.37;;
2123;SDS011;1068;52.460;13.528;2022-11-02T08:52:54;7.37;;;2.10;;
2123;SDS011;1068;52.460;13.528;2022-11-02T08:55:22;12.17;;;2.03;;
2123;SDS011;1068;52.460;13.528;2022-11-02T08:57:50;5.90;;;1.90;;
2123;SDS011;1068;52.460;13.528;2022-11-02T09:00:18;2.50;;;1.57;;
2123;SDS011;1068;52.460;13.528;2022-11-02T09:02:56;4.30;;;2.33;;
2123;SDS011;1068;52.460;13.528;2022-11-02T09:05:23;3.97;;;1.70;;
2123;SDS011;1068;52.460;13.528;2022-11-02T09:07:54;6.40;;;1.80;;
2123;SDS011;1068;52.460;13.528;2022-11-02T09:10:21;6.20;;;1.83;;
2123;SDS011;1068;52.460;13.528;2022-11-02T09:12:48;11.20;;;1.67;;
2123;SDS011;1068;52.460;13.528;2022-11-02T09:15:15;7.13;;;1.60;;
2123;SDS011;1068;52.460;13.528;2022-11-02T09:17:44;3.53;;;1.70;;
2123;SDS011;1068;52.460;13.528;2022-11-02T09:20:11;4.70;;;1.67;;
2123;SDS011;1068;52.460;13.528;2022-11-02T09:22:39;4.33;;;2.30;;
2123;SDS011;1068;52.460;13.528;2022-11-02T09:25:07;3.30;;;1.87;;
2123;SDS011;1068;52.460;13.528;2022-11-02T09:27:34;10.07;;;1.80;;
2123;SDS011;1068;52.460;13.528;2022-11-02T09:30:02;4.50;;;2.47;;
2123;SDS011;1068;52.460;13.528;2022-11-02T09:32:29;5.57;;;1.80;;
2123;SDS011;1068;52.460;13.528;2022-11-02T09:34:57;4.80;;;1.60;;
2123;SDS011;1068;52.460;13.528;2022-11-02T09:37:25;3.27;;;2.10;;
2123;SDS011;1068;52.460;13.528;2022-11-02T09:39:53;9.30;;;1.97;;
2123;SDS011;1068;52.460;13.528;2022-11-02T09:42:23;4.22;;;2.00;;
2123;SDS011;1068;52.460;13.528;2022-11-02T09:44:53;3.40;;;1.83;;
2123;SDS011;1068;52.460;13.528;2022-11-02T09:47:22;6.45;;;2.40;;
2123;SDS011;1068;52.460;13.528;2022-11-02T09:49:50;6.78;;;3.40;;
2123;SDS011;1068;52.460;13.528;2022-11-02T09:52:19;12.00;;;2.27;;
2123;SDS011;1068;52.460;13.528;2022-11-02T09:54:50;3.00;;;1.60;;
2123;SDS011;1068;52.460;13.528;2022-11-02T09:57:19;5.17;;;2.10;;
2123;SDS011;1068;52.460;13.528;2022-11-02T09:59:48;5.10;;;2.10;;
2123;SDS011;1068;52.460;13.528;2022-11-02T10:02:17;4.40;;;1.83;;
2123;SDS011;1068;52.460;13.528;2022-11-02T10:04:52;5.90;;;2.10;;
2123;SDS011;1068;52.460;13.528;2022-11-02T10:07:23;5.93;;;2.28;;
2123;SDS011;1068;52.460;13.528;2022-11-02T10:09:53;4.87;;;1.67;;
2123;SDS011;1068;52.460;13.528;2022-11-02T10:12:22;7.07;;;3.03;;
2123;SDS011;1068;52.460;13.528;2022-11-02T10:14:54;8.30;;;1.83;;
2123;SDS011;1068;52.460;13.528;2022-11-02T10:17:24;5.53;;;2.07;;
2123;SDS011;1068;52.460;13.528;2022-11-02T10:19:53;6.10;;;1.83;;
2123;SDS011;1068;52.460;13.528;2022-11-02T10:22:20;3.83;;;1.90;;
2123;SDS011;1068;52.460;13.528;2022-11-02T10:24:50;6.70;;;2.07;;
2123;SDS011;1068;52.460;13.528;2022-11-02T10:27:19;3.30;;;1.60;;
2123;SDS011;1068;52.460;13.528;2022-11-02T10:29:48;5.60;;;1.80;;
2123;SDS011;1068;52.460;13.528;2022-11-02T10:32:20;6.00;;;1.73;;
2123;SDS011;1068;52.460;13.528;2022-11-02T10:34:47;7.57;;;1.80;;
2123;SDS011;1068;52.460;13.528;2022-11-02T10:37:21;6.47;;;1.92;;
2123;SDS011;1068;52.460;13.528;2022-11-02T10:39:55;3.13;;;1.63;;
2123;SDS011;1068;52.460;13.528;2022-11-02T10:42:28;7.50;;;1.87;;
2123;SDS011;1068;52.460;13.528;2022-11-02T10:45:03;4.97;;;1.83;;
2123;SDS011;1068;52.460;13.528;2022-11-02T10:47:35;8.97;;;1.97;;
2123;SDS011;1068;52.460;13.528;2022-11-02T10:50:11;6.23;;;1.77;;
2123;SDS011;1068;52.460;13.528;2022-11-02T10:52:40;4.32;;;1.40;;
2123;SDS011;1068;52.460;13.528;2022-11-02T10:55:08;3.20;;;1.80;;
2123;SDS011;1068;52.460;13.528;2022-11-02T10:57:37;4.50;;;1.90;;
2123;SDS011;1068;52.460;13.528;2022-11-02T11:00:21;6.97;;;1.70;;
2123;SDS011;1068;52.460;13.528;2022-11-02T11:03:02;6.70;;;1.83;;
2123;SDS011;1068;52.460;13.528;2022-11-02T11:05:29;7.90;;;1.70;;
2123;SDS011;1068;52.460;13.528;2022-11-02T11:07:57;5.40;;;1.57;;
2123;SDS011;1068;52.460;13.528;2022-11-02T11:10:24;5.07;;;1.63;;
2123;SDS011;1068;52.460;13.528;2022-11-02T11:12:53;4.33;;;1.57;;
2123;SDS011;1068;52.460;13.528;2022-11-02T11:15:22;7.10;;;1.90;;
2123;SDS011;1068;52.460;13.528;2022-11-02T11:17:49;3.80;;;1.40;;
2123;SDS011;1068;52.460;13.528;2022-11-02T11:20:30;9.23;;;2.60;;
2123;SDS011;1068;52.460;13.528;2022-11-02T11:25:52;8.00;;;2.13;;
2123;SDS011;1068;52.460;13.528;2022-11-02T11:28:20;4.20;;;1.77;;
2123;SDS011;1068;52.460;13.528;2022-11-02T11:30:47;6.13;;;1.90;;
2123;SDS011;1068;52.460;13.528;2022-11-02T11:33:17;7.43;;;1.93;;
2123;SDS011;1068;52.460;13.528;2022-11-02T11:35:48;3.97;;;1.80;;
2123;SDS011;1068;52.460;13.528;2022-11-02T11:38:16;3.40;;;1.80;;
2123;SDS011;1068;52.460;13.528;2022-11-02T11:40:44;7.53;;;2.20;;
2123;SDS011;1068;52.460;13.528;2022-11-02T11:43:13;5.43;;;2.03;;
2123;SDS011;1068;52.460;13.528;2022-11-02T11:45:52;4.93;;;1.90;;
2123;SDS011;1068;52.460;13.528;2022-11-02T11:48:20;7.07;;;2.13;;
2123;SDS011;1068;52.460;13.528;2022-11-02T11:50:51;6.53;;;2.27;;
2123;SDS011;1068;52.460;13.528;2022-11-02T11:53:19;7.13;;;1.87;;
2123;SDS011;1068;52.460;13.528;2022-11-02T11:55:47;9.23;;;2.20;;
2123;SDS011;1068;52.460;13.528;2022-11-02T11:58:15;4.17;;;1.80;;
2123;SDS011;1068;52.460;13.528;2022-11-02T12:00:44;6.10;;;1.67;;
2123;SDS011;1068;52.460;13.528;2022-11-02T12:03:12;6.00;;;1.95;;
2123;SDS011;1068;52.460;13.528;2022-11-02T12:05:43;4.37;;;1.57;;
2123;SDS011;1068;52.460;13.528;2022-11-02T12:08:17;3.90;;;1.53;;
2123;SDS011;1068;52.460;13.528;2022-11-02T12:10:58;6.93;;;2.53;;
2123;SDS011;1068;52.460;13.528;2022-11-02T12:13:35;3.07;;;2.00;;
2123;SDS011;1068;52.460;13.528;2022-11-02T12:16:10;3.97;;;1.93;;
2123;SDS011;1068;52.460;13.528;2022-11-02T12:18:42;6.40;;;1.90;;
2123;SDS011;1068;52.460;13.528;2022-11-02T12:21:17;4.63;;;2.10;;
2123;SDS011;1068;52.460;13.528;2022-11-02T12:23:54;3.73;;;1.93;;
2123;SDS011;1068;52.460;13.528;2022-11-02T12:26:28;3.70;;;1.90;;
2123;SDS011;1068;52.460;13.528;2022-11-02T12:29:00;4.60;;;1.97;;
2123;SDS011;1068;52.460;13.528;2022-11-02T12:31:31;3.47;;;2.10;;
2123;SDS011;1068;52.460;13.528;2022-11-02T12:34:05;2.42;;;1.88;;
2123;SDS011;1068;52.460;13.528;2022-11-02T12:36:40;3.40;;;1.70;;
2123;SDS011;1068;52.460;13.528;2022-11-02T12:39:12;5.80;;;1.73;;
2123;SDS011;1068;52.460;13.528;2022-11-02T12:41:43;4.53;;;2.00;;
2123;SDS011;1068;52.460;13.528;2022-11-02T12:44:15;6.97;;;2.05;;
2123;SDS011;1068;52.460;13.528;2022-11-02T12:46:47;8.33;;;2.00;;
2123;SDS011;1068;52.460;13.528;2022-11-02T12:49:22;6.70;;;2.73;;
2123;SDS011;1068;52.460;13.528;2022-11-02T12:51:53;5.50;;;1.97;;
2123;SDS011;1068;52.460;13.528;2022-11-02T12:54:23;6.47;;;2.47;;
2123;SDS011;1068;52.460;13.528;2022-11-02T12:56:53;3.25;;;2.30;;
2123;SDS011;1068;52.460;13.528;2022-11-02T12:59:20;5.53;;;1.90;;
2123;SDS011;1068;52.460;13.528;2022-11-02T13:01:48;3.60;;;2.53;;
2123;SDS011;1068;52.460;13.528;2022-11-02T13:04:18;5.73;;;2.13;;
2123;SDS011;1068;52.460;13.528;2022-11-02T13:06:47;5.80;;;2.00;;
2123;SDS011;1068;52.460;13.528;2022-11-02T13:09:15;3.80;;;1.53;;
2123;SDS011;1068;52.460;13.528;2022-11-02T13:11:45;5.50;;;2.00;;
2123;SDS011;1068;52.460;13.528;2022-11-02T13:14:14;2.53;;;1.57;;
2123;SDS011;1068;52.460;13.528;2022-11-02T13:16:43;5.50;;;1.50;;
2123;SDS011;1068;52.460;13.528;2022-11-02T13:19:13;5.80;;;2.03;;
2123;SDS011;1068;52.460;13.528;2022-11-02T13:21:42;3.88;;;1.70;;
2123;SDS011;1068;52.460;13.528;2022-11-02T13:24:12;3.20;;;1.20;;
2123;SDS011;1068;52.460;13.528;2022-11-02T13:26:41;6.45;;;1.75;;
2123;SDS011;1068;52.460;13.528;2022-11-02T13:29:12;7.27;;;1.80;;
2123;SDS011;1068;52.460;13.528;2022-11-02T13:31:42;4.77;;;1.57;;
2123;SDS011;1068;52.460;13.528;2022-11-02T13:34:11;3.97;;;1.60;;
2123;SDS011;1068;52.460;13.528;2022-11-02T13:36:40;4.83;;;1.37;;
2123;SDS011;1068;52.460;13.528;2022-11-02T13:39:08;3.90;;;1.30;;
2123;SDS011;1068;52.460;13.528;2022-11-02T13:41:48;4.63;;;1.50;;
2123;SDS011;1068;52.460;13.528;2022-11-02T13:44:21;2.73;;;1.37;;
2123;SDS011;1068;52.460;13.528;2022-11-02T13:46:54;3.07;;;1.70;;
2123;SDS011;1068;52.460;13.528;2022-11-02T13:49:25;2.27;;;1.40;;
2123;SDS011;1068;52.460;13.528;2022-11-02T13:51:55;3.20;;;1.43;;
2123;SDS011;1068;52.460;13.528;2022-11-02T13:54:25;3.70;;;1.47;;
2123;SDS011;1068;52.460;13.528;2022-11-02T13:56:54;1.87;;;1.20;;
2123;SDS011;1068;52.460;13.528;2022-11-02T13:59:24;3.47;;;1.23;;
2123;SDS011;1068;52.460;13.528;2022-11-02T14:01:52;3.17;;;1.15;;
2123;SDS011;1068;52.460;13.528;2022-11-02T14:04:19;5.20;;;1.70;;
2123;SDS011;1068;52.460;13.528;2022-11-02T14:06:48;4.00;;;1.93;;
2123;SDS011;1068;52.460;13.528;2022-11-02T14:09:19;4.60;;;1.70;;
2123;SDS011;1068;52.460;13.528;2022-11-02T14:11:47;4.77;;;1.27;;
2123;SDS011;1068;52.460;13.528;2022-11-02T14:14:21;2.40;;;1.30;;
2123;SDS011;1068;52.460;13.528;2022-11-02T14:16:58;4.40;;;1.73;;
2123;SDS011;1068;52.460;13.528;2022-11-02T14:19:52;2.63;;;1.27;;
2123;SDS011;1068;52.460;13.528;2022-11-02T14:22:20;5.37;;;1.63;;
2123;SDS011;1068;52.460;13.528;2022-11-02T14:24:54;5.10;;;1.53;;
2123;SDS011;1068;52.460;13.528;2022-11-02T14:27:27;2.47;;;1.40;;
2123;SDS011;1068;52.460;13.528;2022-11-02T14:29:55;4.60;;;1.40;;
2123;SDS011;1068;52.460;13.528;2022-11-02T14:32:33;6.00;;;1.77;;
2123;SDS011;1068;52.460;13.528;2022-11-02T14:35:17;3.27;;;1.30;;
2123;SDS011;1068;52.460;13.528;2022-11-02T14:40:44;3.37;;;1.13;;
2123;SDS011;1068;52.460;13.528;2022-11-02T14:43:19;1.98;;;1.35;;
2123;SDS011;1068;52.460;13.528;2022-11-02T14:45:54;2.17;;;1.30;;
2123;SDS011;1068;52.460;13.528;2022-11-02T14:48:25;3.40;;;1.23;;
2123;SDS011;1068;52.460;13.528;2022-11-02T14:50:56;3.15;;;1.33;;
2123;SDS011;1068;52.460;13.528;2022-11-02T14:53:25;3.10;;;1.97;;
2123;SDS011;1068;52.460;13.528;2022-11-02T14:55:53;2.05;;;1.65;;
2123;SDS011;1068;52.460;13.528;2022-11-02T14:58:21;4.00;;;1.37;;
2123;SDS011;1068;52.460;13.528;2022-11-02T15:00:54;2.00;;;1.43;;
2123;SDS011;1068;52.460;13.528;2022-11-02T15:03:30;3.90;;;1.63;;
2123;SDS011;1068;52.460;13.528;2022-11-02T15:05:58;8.60;;;1.67;;
2123;SDS011;1068;52.460;13.528;2022-11-02T15:08:27;4.90;;;1.57;;
2123;SDS011;1068;52.460;13.528;2022-11-02T15:10:55;2.90;;;1.90;;
2123;SDS011;1068;52.460;13.528;2022-11-02T15:13:30;3.33;;;1.67;;
2123;SDS011;1068;52.460;13.528;2022-11-02T15:16:14;4.20;;;1.57;;
2123;SDS011;1068;52.460;13.528;2022-11-02T15:18:42;1.67;;;1.43;;
2123;SDS011;1068;52.460;13.528;2022-11-02T15:21:22;5.57;;;2.23;;